Willits, CA (95490)

2:48 AM PDT on October 21, 2014 (GMT -0700)
Mendocino College Willits | Change Station
CLOSE
Current Station
Personal Weather Station
Location: Willits, CA
Elevation: 1355 ft
Nearby Weather Stations

Elev 1355 ft 39.41 °N, 123.35 °W | Updated 3 minutes ago

Partly Cloudy
Partly Cloudy
45.5 °F
Feels Like 46 °F
N
0.0
Wind Variable Wind from NNE
Gusts 0.0 mph

Today
High -- | Low -- °F
--% Chance of Precip.
Yesterday
High -- | Low -- °F
Precip. -- in
7:29 AM 6:25 PM
Waning Crescent, 6% visible
Pressure 30.09 in
Visibility 10.0 miles
Clouds Scattered Clouds 2400 ft
Windchill 46 °F
Dew Point 45 °F
Humidity 98%
Rainfall 0.00 in
Snow Depth Not available.
UV 0 out of 12
Pollen 2.20 out of 12
Air Quality Not available.
Flu Activity Sporadic
SPECI KUKI 210914Z AUTO 00000KT 10SM SCT024 09/07 A3009 RMK AO2 T00890072

More Conditions Fewer Conditions

Pressure 30.09 in
Visibility 10.0 miles
Clouds Scattered Clouds 2400 ft
Windchill 46 °F
Dew Point 45 °F
Humidity 98%
Rainfall 0.00 in
Snow Depth Not available.
UV 0 out of 12
Pollen 2.20 out of 12
Air Quality Not available.
Flu Activity Sporadic
SPECI KUKI 210914Z AUTO 00000KT 10SM SCT024 09/07 A3009 RMK AO2 T00890072

More Conditions Fewer Conditions

10-Day Weather Forecast

Almanac

Astronomy

Oct. 21, 2014 Rise Set
Actual Time 7:29 AM PDT 6:25 PM PDT
Civil Twilight 7:02 AM PDT 6:53 PM PDT
Nautical Twilight 6:31 AM PDT 7:24 PM PDT
Astronomical Twilight 5:59 AM PDT 7:55 PM PDT
Moon 5:19 AM PDT 5:22 PM PDT
Length of Visible Light 11h 50m
Length of Day
10h 56m
Tomorrow will be 2m 25s shorter.
Waning Crescent, 6% of the Moon is Illuminated
Today
Waning Crescent
Oct 23
New
Oct 30
First Quarter
Nov 6
Full
Nov 14
Last Quarter

Today's Extremes

State Highs State Lows

Community

WunderPhotos

Upload Photos

1,763,619 photos uploaded!

Nearby

Snow Depth

Station Depth Elevation
CSS Lab 0 in 6900 ft
Independence Lake 1 in 8450 ft
Independence Camp 0 in 7000 ft
Independence Creek 0 in 6500 ft
Squaw Valley 0 in 8200 ft

Earthquake Activity

City Distance Mag. Time & Date
Rio Dell, California 80 miles 4.2 7:24 AM PDT
2014-10-19
Minimum magnitude displayed is 2.5.

Coastal Water Temperatures

Place Temperature
Arena Cove, CA 60.1 °F
North Spit, CA 57.9 °F
Point Reyes, CA 60.1 °F
San Francisco, CA 62.1 °F
Richmond, CA 64.0 °F

Nearby Weather Stations